sensor_id;sensor_type;location;lat;lon;timestamp;temperature;humidity
36280;DHT22;22317;47.936;12.742;2023-08-07T00:00:36;10.50;55.50
36280;DHT22;22317;47.936;12.742;2023-08-07T00:03:02;10.50;55.50
36280;DHT22;22317;47.936;12.742;2023-08-07T00:05:28;10.50;55.50
36280;DHT22;22317;47.936;12.742;2023-08-07T00:07:54;10.50;55.50
36280;DHT22;22317;47.936;12.742;2023-08-07T00:10:20;10.50;55.50
36280;DHT22;22317;47.936;12.742;2023-08-07T00:12:46;10.50;55.50
36280;DHT22;22317;47.936;12.742;2023-08-07T00:15:11;10.50;55.40
36280;DHT22;22317;47.936;12.742;2023-08-07T00:17:37;10.50;55.30
36280;DHT22;22317;47.936;12.742;2023-08-07T00:20:04;10.50;56.00
36280;DHT22;22317;47.936;12.742;2023-08-07T00:22:30;10.50;55.50
36280;DHT22;22317;47.936;12.742;2023-08-07T00:24:56;10.50;55.50
36280;DHT22;22317;47.936;12.742;2023-08-07T00:27:22;10.50;55.40
36280;DHT22;22317;47.936;12.742;2023-08-07T00:29:47;10.50;55.30
36280;DHT22;22317;47.936;12.742;2023-08-07T00:32:13;10.50;55.30
36280;DHT22;22317;47.936;12.742;2023-08-07T00:34:40;10.50;55.40
36280;DHT22;22317;47.936;12.742;2023-08-07T00:37:06;10.50;55.50
36280;DHT22;22317;47.936;12.742;2023-08-07T00:39:32;10.50;55.50
36280;DHT22;22317;47.936;12.742;2023-08-07T00:41:58;10.50;55.50
36280;DHT22;22317;47.936;12.742;2023-08-07T00:44:24;10.50;55.50
36280;DHT22;22317;47.936;12.742;2023-08-07T00:46:50;10.50;55.50
36280;DHT22;22317;47.936;12.742;2023-08-07T00:49:16;10.50;55.50
36280;DHT22;22317;47.936;12.742;2023-08-07T00:51:44;10.50;55.60
36280;DHT22;22317;47.936;12.742;2023-08-07T00:54:11;10.50;55.50
36280;DHT22;22317;47.936;12.742;2023-08-07T00:56:39;10.50;55.40
36280;DHT22;22317;47.936;12.742;2023-08-07T00:59:05;10.50;55.50
36280;DHT22;22317;47.936;12.742;2023-08-07T01:01:32;10.40;55.50
36280;DHT22;22317;47.936;12.742;2023-08-07T01:03:57;10.40;55.40
36280;DHT22;22317;47.936;12.742;2023-08-07T01:06:23;10.40;55.40
36280;DHT22;22317;47.936;12.742;2023-08-07T01:08:49;10.40;55.50
36280;DHT22;22317;47.936;12.742;2023-08-07T01:11:44;10.40;55.60
36280;DHT22;22317;47.936;12.742;2023-08-07T01:16:58;10.40;55.50
36280;DHT22;22317;47.936;12.742;2023-08-07T01:19:27;10.40;55.50
36280;DHT22;22317;47.936;12.742;2023-08-07T01:24:38;10.30;55.80
36280;DHT22;22317;47.936;12.742;2023-08-07T01:27:10;10.30;55.20
36280;DHT22;22317;47.936;12.742;2023-08-07T01:32:53;10.20;55.50
36280;DHT22;22317;47.936;12.742;2023-08-07T01:35:22;10.10;55.60
36280;DHT22;22317;47.936;12.742;2023-08-07T01:37:53;10.10;55.70
36280;DHT22;22317;47.936;12.742;2023-08-07T01:40:21;10.00;55.70
36280;DHT22;22317;47.936;12.742;2023-08-07T01:42:47;10.00;55.90
36280;DHT22;22317;47.936;12.742;2023-08-07T01:45:13;9.90;56.10
36280;DHT22;22317;47.936;12.742;2023-08-07T01:47:39;9.90;56.30
36280;DHT22;22317;47.936;12.742;2023-08-07T01:50:06;9.90;56.50
36280;DHT22;22317;47.936;12.742;2023-08-07T01:52:31;9.80;56.60
36280;DHT22;22317;47.936;12.742;2023-08-07T01:54:58;9.80;56.80
36280;DHT22;22317;47.936;12.742;2023-08-07T01:57:23;9.70;56.80
36280;DHT22;22317;47.936;12.742;2023-08-07T01:59:49;9.70;56.80
36280;DHT22;22317;47.936;12.742;2023-08-07T02:02:15;9.60;57.00
36280;DHT22;22317;47.936;12.742;2023-08-07T02:04:41;9.60;57.20
36280;DHT22;22317;47.936;12.742;2023-08-07T02:07:07;9.50;57.30
36280;DHT22;22317;47.936;12.742;2023-08-07T02:09:32;9.50;57.50
36280;DHT22;22317;47.936;12.742;2023-08-07T02:11:58;9.50;57.70
36280;DHT22;22317;47.936;12.742;2023-08-07T02:14:24;9.50;58.00
36280;DHT22;22317;47.936;12.742;2023-08-07T02:16:49;9.40;58.00
36280;DHT22;22317;47.936;12.742;2023-08-07T02:19:15;9.40;58.10
36280;DHT22;22317;47.936;12.742;2023-08-07T02:21:41;9.40;58.40
36280;DHT22;22317;47.936;12.742;2023-08-07T02:24:06;9.30;58.50
36280;DHT22;22317;47.936;12.742;2023-08-07T02:26:32;9.30;58.60
36280;DHT22;22317;47.936;12.742;2023-08-07T02:28:58;9.30;58.80
36280;DHT22;22317;47.936;12.742;2023-08-07T02:31:24;9.20;58.90
36280;DHT22;22317;47.936;12.742;2023-08-07T02:33:49;9.20;59.00
36280;DHT22;22317;47.936;12.742;2023-08-07T02:36:15;9.20;59.20
36280;DHT22;22317;47.936;12.742;2023-08-07T02:38:41;9.10;59.30
36280;DHT22;22317;47.936;12.742;2023-08-07T02:41:07;9.10;59.50
36280;DHT22;22317;47.936;12.742;2023-08-07T02:43:34;9.00;59.70
36280;DHT22;22317;47.936;12.742;2023-08-07T02:46:00;9.00;59.90
36280;DHT22;22317;47.936;12.742;2023-08-07T02:48:25;9.00;60.00
36280;DHT22;22317;47.936;12.742;2023-08-07T02:50:51;9.00;60.20
36280;DHT22;22317;47.936;12.742;2023-08-07T02:53:17;8.90;60.20
36280;DHT22;22317;47.936;12.742;2023-08-07T02:55:44;8.90;60.40
36280;DHT22;22317;47.936;12.742;2023-08-07T02:58:09;8.90;60.60
36280;DHT22;22317;47.936;12.742;2023-08-07T03:00:35;8.80;60.70
36280;DHT22;22317;47.936;12.742;2023-08-07T03:03:01;8.80;61.00
36280;DHT22;22317;47.936;12.742;2023-08-07T03:05:27;8.70;61.00
36280;DHT22;22317;47.936;12.742;2023-08-07T03:07:53;8.70;61.30
36280;DHT22;22317;47.936;12.742;2023-08-07T03:10:18;8.70;61.40
36280;DHT22;22317;47.936;12.742;2023-08-07T03:12:44;8.60;61.60
36280;DHT22;22317;47.936;12.742;2023-08-07T03:15:10;8.60;61.80
36280;DHT22;22317;47.936;12.742;2023-08-07T03:17:36;8.60;62.00
36280;DHT22;22317;47.936;12.742;2023-08-07T03:20:02;8.50;62.20
36280;DHT22;22317;47.936;12.742;2023-08-07T03:22:29;8.50;62.40
36280;DHT22;22317;47.936;12.742;2023-08-07T03:24:55;8.50;62.50
36280;DHT22;22317;47.936;12.742;2023-08-07T03:27:21;8.50;62.60
36280;DHT22;22317;47.936;12.742;2023-08-07T03:29:47;8.40;62.60
36280;DHT22;22317;47.936;12.742;2023-08-07T03:32:13;8.40;62.80
36280;DHT22;22317;47.936;12.742;2023-08-07T03:34:39;8.40;63.00
36280;DHT22;22317;47.936;12.742;2023-08-07T03:37:06;8.30;63.10
36280;DHT22;22317;47.936;12.742;2023-08-07T03:39:32;8.40;63.30
36280;DHT22;22317;47.936;12.742;2023-08-07T03:41:58;8.30;63.40
36280;DHT22;22317;47.936;12.742;2023-08-07T03:44:24;8.30;63.60
36280;DHT22;22317;47.936;12.742;2023-08-07T03:46:50;8.20;63.60
36280;DHT22;22317;47.936;12.742;2023-08-07T03:49:21;8.20;63.80
36280;DHT22;22317;47.936;12.742;2023-08-07T03:51:46;8.20;63.90
36280;DHT22;22317;47.936;12.742;2023-08-07T03:54:12;8.20;64.00
36280;DHT22;22317;47.936;12.742;2023-08-07T03:56:38;8.20;64.10
36280;DHT22;22317;47.936;12.742;2023-08-07T03:59:04;8.10;64.10
36280;DHT22;22317;47.936;12.742;2023-08-07T04:01:31;8.10;64.30
36280;DHT22;22317;47.936;12.742;2023-08-07T04:03:56;8.10;64.30
36280;DHT22;22317;47.936;12.742;2023-08-07T04:06:22;8.10;64.50
36280;DHT22;22317;47.936;12.742;2023-08-07T04:08:48;8.10;64.60
36280;DHT22;22317;47.936;12.742;2023-08-07T04:11:14;8.10;64.70
36280;DHT22;22317;47.936;12.742;2023-08-07T04:13:39;8.10;64.80
36280;DHT22;22317;47.936;12.742;2023-08-07T04:16:05;8.10;64.80
36280;DHT22;22317;47.936;12.742;2023-08-07T04:18:32;8.20;64.90
36280;DHT22;22317;47.936;12.742;2023-08-07T04:20:58;8.10;64.90
36280;DHT22;22317;47.936;12.742;2023-08-07T04:23:24;8.10;65.10
36280;DHT22;22317;47.936;12.742;2023-08-07T04:25:51;8.30;66.00
36280;DHT22;22317;47.936;12.742;2023-08-07T04:28:17;8.20;65.30
36280;DHT22;22317;47.936;12.742;2023-08-07T04:30:44;8.20;65.40
36280;DHT22;22317;47.936;12.742;2023-08-07T04:33:10;8.20;65.40
36280;DHT22;22317;47.936;12.742;2023-08-07T04:35:36;8.20;65.30
36280;DHT22;22317;47.936;12.742;2023-08-07T04:38:02;8.20;65.40
36280;DHT22;22317;47.936;12.742;2023-08-07T04:40:29;8.20;65.50
36280;DHT22;22317;47.936;12.742;2023-08-07T04:42:56;8.30;65.40
36280;DHT22;22317;47.936;12.742;2023-08-07T04:45:21;8.30;65.50
36280;DHT22;22317;47.936;12.742;2023-08-07T04:47:47;8.30;65.30
36280;DHT22;22317;47.936;12.742;2023-08-07T04:50:13;8.30;65.20
36280;DHT22;22317;47.936;12.742;2023-08-07T04:52:39;8.40;65.40
36280;DHT22;22317;47.936;12.742;2023-08-07T04:55:05;8.30;65.30
36280;DHT22;22317;47.936;12.742;2023-08-07T04:57:31;8.30;65.40
36280;DHT22;22317;47.936;12.742;2023-08-07T04:59:56;8.40;65.30
36280;DHT22;22317;47.936;12.742;2023-08-07T05:02:22;8.40;65.40
36280;DHT22;22317;47.936;12.742;2023-08-07T05:04:48;8.40;65.20
36280;DHT22;22317;47.936;12.742;2023-08-07T05:07:14;8.40;65.30
36280;DHT22;22317;47.936;12.742;2023-08-07T05:09:40;8.50;65.40
36280;DHT22;22317;47.936;12.742;2023-08-07T05:12:06;8.50;65.20
36280;DHT22;22317;47.936;12.742;2023-08-07T05:14:33;8.50;65.20
36280;DHT22;22317;47.936;12.742;2023-08-07T05:16:59;8.50;65.30
36280;DHT22;22317;47.936;12.742;2023-08-07T05:19:27;8.60;65.20
36280;DHT22;22317;47.936;12.742;2023-08-07T05:21:53;8.60;65.00
36280;DHT22;22317;47.936;12.742;2023-08-07T05:24:19;8.60;65.00
36280;DHT22;22317;47.936;12.742;2023-08-07T05:26:45;8.60;64.80
36280;DHT22;22317;47.936;12.742;2023-08-07T05:29:11;8.70;64.80
36280;DHT22;22317;47.936;12.742;2023-08-07T05:31:37;8.80;64.90
36280;DHT22;22317;47.936;12.742;2023-08-07T05:34:03;8.70;64.70
36280;DHT22;22317;47.936;12.742;2023-08-07T05:36:29;8.70;64.60
36280;DHT22;22317;47.936;12.742;2023-08-07T05:38:57;8.70;64.60
36280;DHT22;22317;47.936;12.742;2023-08-07T05:41:23;8.70;64.60
36280;DHT22;22317;47.936;12.742;2023-08-07T05:43:48;8.80;64.50
36280;DHT22;22317;47.936;12.742;2023-08-07T05:46:14;8.80;64.40
36280;DHT22;22317;47.936;12.742;2023-08-07T05:48:40;8.80;64.20
36280;DHT22;22317;47.936;12.742;2023-08-07T05:51:06;8.80;64.20
36280;DHT22;22317;47.936;12.742;2023-08-07T05:53:34;8.80;64.30
36280;DHT22;22317;47.936;12.742;2023-08-07T05:56:00;8.90;64.30
36280;DHT22;22317;47.936;12.742;2023-08-07T05:58:26;8.90;64.10
36280;DHT22;22317;47.936;12.742;2023-08-07T06:00:52;9.00;64.10
36280;DHT22;22317;47.936;12.742;2023-08-07T06:03:17;9.00;64.00
36280;DHT22;22317;47.936;12.742;2023-08-07T06:05:44;9.00;63.90
36280;DHT22;22317;47.936;12.742;2023-08-07T06:08:09;9.00;63.70
36280;DHT22;22317;47.936;12.742;2023-08-07T06:10:35;9.10;63.60
36280;DHT22;22317;47.936;12.742;2023-08-07T06:13:01;9.10;63.50
36280;DHT22;22317;47.936;12.742;2023-08-07T06:15:29;9.10;63.50
36280;DHT22;22317;47.936;12.742;2023-08-07T06:17:55;9.10;63.40
36280;DHT22;22317;47.936;12.742;2023-08-07T06:20:21;9.20;63.20
36280;DHT22;22317;47.936;12.742;2023-08-07T06:22:46;9.10;63.10
36280;DHT22;22317;47.936;12.742;2023-08-07T06:25:12;9.20;63.20
36280;DHT22;22317;47.936;12.742;2023-08-07T06:27:38;9.20;63.20
36280;DHT22;22317;47.936;12.742;2023-08-07T06:30:04;9.20;63.20
36280;DHT22;22317;47.936;12.742;2023-08-07T06:32:31;8.80;62.90
36280;DHT22;22317;47.936;12.742;2023-08-07T06:34:57;9.20;62.90
36280;DHT22;22317;47.936;12.742;2023-08-07T06:37:23;9.20;62.90
36280;DHT22;22317;47.936;12.742;2023-08-07T06:39:49;9.20;62.80
36280;DHT22;22317;47.936;12.742;2023-08-07T06:42:14;9.20;62.70
36280;DHT22;22317;47.936;12.742;2023-08-07T06:44:43;9.20;62.60
36280;DHT22;22317;47.936;12.742;2023-08-07T06:47:08;9.20;62.40
36280;DHT22;22317;47.936;12.742;2023-08-07T06:49:35;9.20;62.50
36280;DHT22;22317;47.936;12.742;2023-08-07T06:52:00;9.20;62.30
36280;DHT22;22317;47.936;12.742;2023-08-07T06:54:26;9.20;62.30
36280;DHT22;22317;47.936;12.742;2023-08-07T06:56:52;9.20;62.20
36280;DHT22;22317;47.936;12.742;2023-08-07T06:59:18;9.20;62.20
36280;DHT22;22317;47.936;12.742;2023-08-07T07:01:43;9.20;62.30
36280;DHT22;22317;47.936;12.742;2023-08-07T07:04:09;9.30;62.30
36280;DHT22;22317;47.936;12.742;2023-08-07T07:06:37;9.30;62.00
36280;DHT22;22317;47.936;12.742;2023-08-07T07:09:03;9.30;61.80
36280;DHT22;22317;47.936;12.742;2023-08-07T07:11:28;9.30;61.60
36280;DHT22;22317;47.936;12.742;2023-08-07T07:13:54;9.30;61.60
36280;DHT22;22317;47.936;12.742;2023-08-07T07:16:20;9.40;61.60
36280;DHT22;22317;47.936;12.742;2023-08-07T07:18:50;9.40;61.30
36280;DHT22;22317;47.936;12.742;2023-08-07T07:21:16;9.40;61.30
36280;DHT22;22317;47.936;12.742;2023-08-07T07:23:42;9.50;61.40
36280;DHT22;22317;47.936;12.742;2023-08-07T07:26:08;9.50;61.20
36280;DHT22;22317;47.936;12.742;2023-08-07T07:28:34;9.60;61.10
36280;DHT22;22317;47.936;12.742;2023-08-07T07:31:00;9.60;60.90
36280;DHT22;22317;47.936;12.742;2023-08-07T07:33:25;9.70;60.80
36280;DHT22;22317;47.936;12.742;2023-08-07T07:35:51;9.80;60.80
36280;DHT22;22317;47.936;12.742;2023-08-07T07:38:17;9.80;60.40
36280;DHT22;22317;47.936;12.742;2023-08-07T07:40:43;9.90;60.20
36280;DHT22;22317;47.936;12.742;2023-08-07T07:43:09;10.00;60.20
36280;DHT22;22317;47.936;12.742;2023-08-07T07:45:35;10.10;60.10
36280;DHT22;22317;47.936;12.742;2023-08-07T07:48:02;10.20;59.80
36280;DHT22;22317;47.936;12.742;2023-08-07T07:50:28;10.20;59.70
36280;DHT22;22317;47.936;12.742;2023-08-07T07:52:54;10.30;59.60
36280;DHT22;22317;47.936;12.742;2023-08-07T07:55:20;10.40;59.30
36280;DHT22;22317;47.936;12.742;2023-08-07T07:57:46;10.50;59.10
36280;DHT22;22317;47.936;12.742;2023-08-07T08:00:12;10.60;58.80
36280;DHT22;22317;47.936;12.742;2023-08-07T08:02:39;10.60;58.50
36280;DHT22;22317;47.936;12.742;2023-08-07T08:05:07;10.70;58.20
36280;DHT22;22317;47.936;12.742;2023-08-07T08:07:33;10.80;58.00
36280;DHT22;22317;47.936;12.742;2023-08-07T08:10:00;10.90;58.00
36280;DHT22;22317;47.936;12.742;2023-08-07T08:12:26;11.10;58.00
36280;DHT22;22317;47.936;12.742;2023-08-07T08:14:52;11.30;57.70
36280;DHT22;22317;47.936;12.742;2023-08-07T08:17:18;11.50;57.70
36280;DHT22;22317;47.936;12.742;2023-08-07T08:19:43;11.70;57.40
36280;DHT22;22317;47.936;12.742;2023-08-07T08:22:09;11.90;56.90
36280;DHT22;22317;47.936;12.742;2023-08-07T08:24:35;12.10;56.80
36280;DHT22;22317;47.936;12.742;2023-08-07T08:27:01;12.30;56.40
36280;DHT22;22317;47.936;12.742;2023-08-07T08:29:26;12.40;55.90
36280;DHT22;22317;47.936;12.742;2023-08-07T08:31:54;12.60;55.70
36280;DHT22;22317;47.936;12.742;2023-08-07T08:34:20;12.70;54.80
36280;DHT22;22317;47.936;12.742;2023-08-07T08:36:47;12.80;54.30
36280;DHT22;22317;47.936;12.742;2023-08-07T08:39:13;12.90;54.30
36280;DHT22;22317;47.936;12.742;2023-08-07T08:41:40;13.00;54.00
36280;DHT22;22317;47.936;12.742;2023-08-07T08:44:09;13.10;53.90
36280;DHT22;22317;47.936;12.742;2023-08-07T08:46:37;13.20;53.30
36280;DHT22;22317;47.936;12.742;2023-08-07T08:49:04;13.30;52.60
36280;DHT22;22317;47.936;12.742;2023-08-07T08:51:31;13.20;52.20
36280;DHT22;22317;47.936;12.742;2023-08-07T08:53:58;13.20;52.20
36280;DHT22;22317;47.936;12.742;2023-08-07T08:56:24;13.20;52.00
36280;DHT22;22317;47.936;12.742;2023-08-07T08:58:51;13.10;51.60
36280;DHT22;22317;47.936;12.742;2023-08-07T09:01:17;13.00;51.60
36280;DHT22;22317;47.936;12.742;2023-08-07T09:03:44;13.00;51.70
36280;DHT22;22317;47.936;12.742;2023-08-07T09:06:11;13.00;51.80
36280;DHT22;22317;47.936;12.742;2023-08-07T09:08:40;13.00;51.10
36280;DHT22;22317;47.936;12.742;2023-08-07T09:11:08;13.00;50.90
36280;DHT22;22317;47.936;12.742;2023-08-07T09:13:36;12.90;50.80
36280;DHT22;22317;47.936;12.742;2023-08-07T09:16:05;12.80;50.80
36280;DHT22;22317;47.936;12.742;2023-08-07T09:18:33;12.90;50.90
36280;DHT22;22317;47.936;12.742;2023-08-07T09:20:59;12.80;50.80
36280;DHT22;22317;47.936;12.742;2023-08-07T09:23:25;12.90;50.80
36280;DHT22;22317;47.936;12.742;2023-08-07T09:26:02;12.90;50.70
36280;DHT22;22317;47.936;12.742;2023-08-07T09:28:28;12.90;50.60
36280;DHT22;22317;47.936;12.742;2023-08-07T09:30:55;12.90;50.80
36280;DHT22;22317;47.936;12.742;2023-08-07T09:33:26;12.90;50.30
36280;DHT22;22317;47.936;12.742;2023-08-07T09:35:52;12.90;49.90
36280;DHT22;22317;47.936;12.742;2023-08-07T09:38:19;12.90;49.70
36280;DHT22;22317;47.936;12.742;2023-08-07T09:40:48;12.90;49.70
36280;DHT22;22317;47.936;12.742;2023-08-07T09:43:21;12.90;49.90
36280;DHT22;22317;47.936;12.742;2023-08-07T09:45:48;12.90;49.90
36280;DHT22;22317;47.936;12.742;2023-08-07T09:48:22;12.90;49.70
36280;DHT22;22317;47.936;12.742;2023-08-07T09:50:49;12.90;49.30
36280;DHT22;22317;47.936;12.742;2023-08-07T09:53:15;12.90;49.00
36280;DHT22;22317;47.936;12.742;2023-08-07T09:55:40;12.80;49.10
36280;DHT22;22317;47.936;12.742;2023-08-07T09:58:08;12.80;49.50
36280;DHT22;22317;47.936;12.742;2023-08-07T10:00:37;12.80;49.40
36280;DHT22;22317;47.936;12.742;2023-08-07T10:03:04;12.90;49.50
36280;DHT22;22317;47.936;12.742;2023-08-07T10:05:31;12.90;49.40
36280;DHT22;22317;47.936;12.742;2023-08-07T10:07:57;12.90;49.10
36280;DHT22;22317;47.936;12.742;2023-08-07T10:10:24;12.90;49.50
36280;DHT22;22317;47.936;12.742;2023-08-07T10:12:52;12.80;48.70
36280;DHT22;22317;47.936;12.742;2023-08-07T10:15:18;12.80;48.70
36280;DHT22;22317;47.936;12.742;2023-08-07T10:17:44;12.80;48.80
36280;DHT22;22317;47.936;12.742;2023-08-07T10:20:11;12.90;48.60
36280;DHT22;22317;47.936;12.742;2023-08-07T10:22:38;12.80;48.40
36280;DHT22;22317;47.936;12.742;2023-08-07T10:25:06;12.80;48.60
36280;DHT22;22317;47.936;12.742;2023-08-07T10:27:36;12.80;48.60
36280;DHT22;22317;47.936;12.742;2023-08-07T10:30:06;12.90;48.50
36280;DHT22;22317;47.936;12.742;2023-08-07T10:32:33;12.90;48.50
36280;DHT22;22317;47.936;12.742;2023-08-07T10:35:03;12.90;48.40
36280;DHT22;22317;47.936;12.742;2023-08-07T10:37:44;13.00;48.60
36280;DHT22;22317;47.936;12.742;2023-08-07T10:40:12;13.00;48.90
36280;DHT22;22317;47.936;12.742;2023-08-07T10:43:12;13.00;48.30
36280;DHT22;22317;47.936;12.742;2023-08-07T10:45:38;13.00;48.30
36280;DHT22;22317;47.936;12.742;2023-08-07T10:50:34;13.10;48.70
36280;DHT22;22317;47.936;12.742;2023-08-07T10:53:04;13.10;49.10
36280;DHT22;22317;47.936;12.742;2023-08-07T10:55:46;13.10;49.30
36280;DHT22;22317;47.936;12.742;2023-08-07T10:58:25;13.10;49.10
36280;DHT22;22317;47.936;12.742;2023-08-07T11:01:14;13.20;49.20
36280;DHT22;22317;47.936;12.742;2023-08-07T11:03:40;13.30;49.50
36280;DHT22;22317;47.936;12.742;2023-08-07T11:06:06;13.40;49.50
36280;DHT22;22317;47.936;12.742;2023-08-07T11:08:32;13.50;49.20
36280;DHT22;22317;47.936;12.742;2023-08-07T11:11:06;13.60;49.10
36280;DHT22;22317;47.936;12.742;2023-08-07T11:13:35;13.70;49.50
36280;DHT22;22317;47.936;12.742;2023-08-07T11:16:04;13.70;48.70
36280;DHT22;22317;47.936;12.742;2023-08-07T11:18:31;13.80;48.80
36280;DHT22;22317;47.936;12.742;2023-08-07T11:20:57;13.90;48.60
36280;DHT22;22317;47.936;12.742;2023-08-07T11:23:27;13.90;48.50
36280;DHT22;22317;47.936;12.742;2023-08-07T11:25:53;14.00;48.50
36280;DHT22;22317;47.936;12.742;2023-08-07T11:28:19;14.00;48.20
36280;DHT22;22317;47.936;12.742;2023-08-07T11:30:48;14.10;48.20
36280;DHT22;22317;47.936;12.742;2023-08-07T11:33:14;14.20;48.30
36280;DHT22;22317;47.936;12.742;2023-08-07T11:35:42;14.30;48.30
36280;DHT22;22317;47.936;12.742;2023-08-07T11:38:07;14.50;48.30
36280;DHT22;22317;47.936;12.742;2023-08-07T11:40:34;14.70;48.40
36280;DHT22;22317;47.936;12.742;2023-08-07T11:43:00;14.80;47.80
36280;DHT22;22317;47.936;12.742;2023-08-07T11:45:26;15.00;47.70
36280;DHT22;22317;47.936;12.742;2023-08-07T11:47:52;15.10;47.20
36280;DHT22;22317;47.936;12.742;2023-08-07T11:50:22;15.20;47.30
36280;DHT22;22317;47.936;12.742;2023-08-07T11:52:48;15.40;47.40
36280;DHT22;22317;47.936;12.742;2023-08-07T11:55:17;15.60;46.70
36280;DHT22;22317;47.936;12.742;2023-08-07T11:57:46;15.60;46.00
36280;DHT22;22317;47.936;12.742;2023-08-07T12:00:12;15.70;45.90
36280;DHT22;22317;47.936;12.742;2023-08-07T12:02:45;15.70;46.10
36280;DHT22;22317;47.936;12.742;2023-08-07T12:05:11;15.80;45.80
36280;DHT22;22317;47.936;12.742;2023-08-07T12:07:38;15.90;45.60
36280;DHT22;22317;47.936;12.742;2023-08-07T12:10:11;15.80;45.10
36280;DHT22;22317;47.936;12.742;2023-08-07T12:12:37;15.80;45.00
36280;DHT22;22317;47.936;12.742;2023-08-07T12:15:09;15.70;45.40
36280;DHT22;22317;47.936;12.742;2023-08-07T12:17:38;15.80;45.20
36280;DHT22;22317;47.936;12.742;2023-08-07T12:20:05;15.80;45.50
36280;DHT22;22317;47.936;12.742;2023-08-07T12:22:36;15.90;45.80
36280;DHT22;22317;47.936;12.742;2023-08-07T12:25:03;16.10;45.60
36280;DHT22;22317;47.936;12.742;2023-08-07T12:27:29;16.30;45.30
36280;DHT22;22317;47.936;12.742;2023-08-07T12:29:54;16.50;45.30
36280;DHT22;22317;47.936;12.742;2023-08-07T12:32:20;16.80;44.90
36280;DHT22;22317;47.936;12.742;2023-08-07T12:34:46;16.70;44.40
36280;DHT22;22317;47.936;12.742;2023-08-07T12:37:11;16.70;44.00
36280;DHT22;22317;47.936;12.742;2023-08-07T12:39:37;16.60;43.70
36280;DHT22;22317;47.936;12.742;2023-08-07T12:42:03;16.40;43.60
36280;DHT22;22317;47.936;12.742;2023-08-07T12:44:30;16.20;43.60
36280;DHT22;22317;47.936;12.742;2023-08-07T12:46:56;15.90;43.50
36280;DHT22;22317;47.936;12.742;2023-08-07T12:49:23;15.70;43.60
36280;DHT22;22317;47.936;12.742;2023-08-07T12:51:50;15.40;44.10
36280;DHT22;22317;47.936;12.742;2023-08-07T12:54:15;15.10;44.70
36280;DHT22;22317;47.936;12.742;2023-08-07T12:56:41;14.90;45.40
36280;DHT22;22317;47.936;12.742;2023-08-07T12:59:07;14.80;46.00
36280;DHT22;22317;47.936;12.742;2023-08-07T13:01:32;14.90;47.00
36280;DHT22;22317;47.936;12.742;2023-08-07T13:03:58;15.00;47.70
36280;DHT22;22317;47.936;12.742;2023-08-07T13:06:24;15.10;47.90
36280;DHT22;22317;47.936;12.742;2023-08-07T13:08:50;15.20;48.10
36280;DHT22;22317;47.936;12.742;2023-08-07T13:11:15;15.40;48.60
36280;DHT22;22317;47.936;12.742;2023-08-07T13:13:41;15.50;48.40
36280;DHT22;22317;47.936;12.742;2023-08-07T13:16:07;15.40;47.90
36280;DHT22;22317;47.936;12.742;2023-08-07T13:18:32;15.30;47.70
36280;DHT22;22317;47.936;12.742;2023-08-07T13:20:58;15.10;47.60
36280;DHT22;22317;47.936;12.742;2023-08-07T13:23:24;14.90;47.80
36280;DHT22;22317;47.936;12.742;2023-08-07T13:25:50;14.80;48.20
36280;DHT22;22317;47.936;12.742;2023-08-07T13:28:16;14.70;48.40
36280;DHT22;22317;47.936;12.742;2023-08-07T13:30:43;14.50;48.60
36280;DHT22;22317;47.936;12.742;2023-08-07T13:33:09;14.40;48.80
36280;DHT22;22317;47.936;12.742;2023-08-07T13:35:35;14.20;49.00
36280;DHT22;22317;47.936;12.742;2023-08-07T13:38:00;14.10;49.30
36280;DHT22;22317;47.936;12.742;2023-08-07T13:40:30;13.90;49.70
36280;DHT22;22317;47.936;12.742;2023-08-07T13:42:56;13.80;50.00
36280;DHT22;22317;47.936;12.742;2023-08-07T13:45:21;13.70;50.50
36280;DHT22;22317;47.936;12.742;2023-08-07T13:47:48;13.50;50.80
36280;DHT22;22317;47.936;12.742;2023-08-07T13:50:14;13.40;51.00
36280;DHT22;22317;47.936;12.742;2023-08-07T13:52:41;13.30;51.40
36280;DHT22;22317;47.936;12.742;2023-08-07T13:55:07;13.10;51.80
36280;DHT22;22317;47.936;12.742;2023-08-07T13:57:34;13.00;52.40
36280;DHT22;22317;47.936;12.742;2023-08-07T14:00:00;13.00;52.80
36280;DHT22;22317;47.936;12.742;2023-08-07T14:02:26;13.00;53.30
36280;DHT22;22317;47.936;12.742;2023-08-07T14:04:51;13.20;53.90
36280;DHT22;22317;47.936;12.742;2023-08-07T14:07:17;13.30;53.90
36280;DHT22;22317;47.936;12.742;2023-08-07T14:09:43;13.40;53.70
36280;DHT22;22317;47.936;12.742;2023-08-07T14:12:09;13.70;54.20
36280;DHT22;22317;47.936;12.742;2023-08-07T14:14:34;14.10;54.90
36280;DHT22;22317;47.936;12.742;2023-08-07T14:17:00;14.50;54.60
36280;DHT22;22317;47.936;12.742;2023-08-07T14:19:27;14.90;53.80
36280;DHT22;22317;47.936;12.742;2023-08-07T14:21:53;14.90;52.30
36280;DHT22;22317;47.936;12.742;2023-08-07T14:24:19;14.80;51.60
36280;DHT22;22317;47.936;12.742;2023-08-07T14:26:44;14.60;51.20
36280;DHT22;22317;47.936;12.742;2023-08-07T14:29:10;14.50;51.10
36280;DHT22;22317;47.936;12.742;2023-08-07T14:31:36;14.20;51.00
36280;DHT22;22317;47.936;12.742;2023-08-07T14:34:02;14.10;51.10
36280;DHT22;22317;47.936;12.742;2023-08-07T14:36:28;13.90;51.30
36280;DHT22;22317;47.936;12.742;2023-08-07T14:38:53;13.70;52.20
36280;DHT22;22317;47.936;12.742;2023-08-07T14:41:19;13.50;51.60
36280;DHT22;22317;47.936;12.742;2023-08-07T14:43:45;13.40;51.80
36280;DHT22;22317;47.936;12.742;2023-08-07T14:46:12;13.20;52.20
36280;DHT22;22317;47.936;12.742;2023-08-07T14:48:38;13.10;52.60
36280;DHT22;22317;47.936;12.742;2023-08-07T14:51:04;13.10;52.80
36280;DHT22;22317;47.936;12.742;2023-08-07T14:53:29;13.20;53.20
36280;DHT22;22317;47.936;12.742;2023-08-07T14:55:55;13.50;54.10
36280;DHT22;22317;47.936;12.742;2023-08-07T14:58:22;13.90;54.30
36280;DHT22;22317;47.936;12.742;2023-08-07T15:00:48;14.10;52.80
36280;DHT22;22317;47.936;12.742;2023-08-07T15:03:15;14.20;52.40
36280;DHT22;22317;47.936;12.742;2023-08-07T15:05:41;14.30;51.90
36280;DHT22;22317;47.936;12.742;2023-08-07T15:08:07;14.20;51.40
36280;DHT22;22317;47.936;12.742;2023-08-07T15:10:33;14.00;50.70
36280;DHT22;22317;47.936;12.742;2023-08-07T15:12:59;13.80;50.60
36280;DHT22;22317;47.936;12.742;2023-08-07T15:15:25;13.60;50.70
36280;DHT22;22317;47.936;12.742;2023-08-07T15:17:51;13.40;50.70
36280;DHT22;22317;47.936;12.742;2023-08-07T15:20:18;13.30;50.90
36280;DHT22;22317;47.936;12.742;2023-08-07T15:22:46;13.20;51.10
36280;DHT22;22317;47.936;12.742;2023-08-07T15:25:13;13.10;51.30
36280;DHT22;22317;47.936;12.742;2023-08-07T15:27:39;13.10;51.60
36280;DHT22;22317;47.936;12.742;2023-08-07T15:30:05;13.10;51.80